ORER

Erbil International Airport

Arbil, Iraq
TAF ORER 202200Z 2100/2124 14006KT 6000 NSC
Issued Valid From Valid To
Apr-20 @ 22:00 UTC
(6 hours ago)
Apr-21 @ 00:00 UTC
(4 hours ago)
Apr-22 @ 00:00 UTC
(in 20 hours)
Apr-21 @ 00:00 to Apr-22 @ 00:00
TAF ORER 202200Z 2100/2124 14006KT 6000 NSC
Wind Visibility Clouds
140° at 6 knots 6,003 meters
  • No significant clouds
TAF ORER 202200Z 2100/2124 14006KT 6000 NSC
Issued Apr-20 @ 22:00 UTC
(6 hours ago)
Valid From Apr-21 @ 00:00 UTC
(4 hours ago)
Valid To Apr-22 @ 00:00 UTC
(in 20 hours)
Apr-21 @ 00:00 - Apr-22 @ 00:00
Wind Visibility
140° at 6 knots 6,003 meters
Clouds
  • No significant clouds